createdAt,value
2022-10-05T00:01:45.105Z,6.32
2022-10-05T00:04:20.274Z,6.30
2022-10-05T00:07:02.100Z,6.07
2022-10-05T00:09:31.594Z,5.88
2022-10-05T00:11:58.260Z,6.03
2022-10-05T00:14:31.910Z,5.95
2022-10-05T00:16:58.745Z,6.03
2022-10-05T00:19:33.324Z,6.35
2022-10-05T00:22:13.259Z,6.28
2022-10-05T00:24:40.191Z,5.40
2022-10-05T00:27:21.841Z,5.32
2022-10-05T00:29:50.526Z,5.45
2022-10-05T00:32:17.758Z,5.53
2022-10-05T00:34:45.055Z,5.45
2022-10-05T00:37:13.536Z,5.47
2022-10-05T00:39:41.154Z,5.45
2022-10-05T00:42:37.223Z,5.20
2022-10-05T00:45:11.592Z,5.97
2022-10-05T00:47:47.063Z,5.82
2022-10-05T00:50:19.689Z,5.38
2022-10-05T00:53:15.461Z,5.70
2022-10-05T00:55:50.864Z,5.38
2022-10-05T00:58:29.423Z,5.90
2022-10-05T01:01:11.243Z,5.70
2022-10-05T01:03:57.663Z,5.35
2022-10-05T01:07:01.155Z,5.25
2022-10-05T01:09:41.962Z,5.28
2022-10-05T01:12:24.490Z,6.03
2022-10-05T01:15:02.205Z,5.85
2022-10-05T01:17:40.393Z,5.88
2022-10-05T01:20:17.073Z,6.47
2022-10-05T01:23:15.060Z,6.15
2022-10-05T01:26:19.944Z,6.97
2022-10-05T01:28:59.723Z,6.55
2022-10-05T01:32:08.632Z,6.50
2022-10-05T01:34:43.086Z,6.65
2022-10-05T01:37:29.363Z,6.85
2022-10-05T01:40:04.836Z,7.15
2022-10-05T01:42:49.448Z,6.25
2022-10-05T01:45:32.148Z,7.03
2022-10-05T01:48:09.849Z,7.25
2022-10-05T01:50:56.172Z,7.15
2022-10-05T01:53:43.561Z,7.22
2022-10-05T01:56:28.571Z,7.20
2022-10-05T01:59:01.651Z,7.28
2022-10-05T02:01:39.048Z,7.15
2022-10-05T02:04:35.584Z,7.10
2022-10-05T02:07:10.356Z,6.90
2022-10-05T02:09:44.756Z,7.45
2022-10-05T02:12:17.543Z,7.15
2022-10-05T02:14:49.372Z,7.05
2022-10-05T02:20:03.809Z,6.90
2022-10-05T02:22:44.919Z,7.03
2022-10-05T02:25:19.687Z,7.20
2022-10-05T02:28:02.275Z,7.72
2022-10-05T02:30:32.445Z,7.63
2022-10-05T02:33:09.099Z,8.02
2022-10-05T02:35:35.593Z,7.90
2022-10-05T02:38:17.082Z,7.68
2022-10-05T02:40:52.698Z,7.65
2022-10-05T02:43:32.038Z,8.00
2022-10-05T02:46:14.437Z,7.50
2022-10-05T02:48:44.898Z,7.30
2022-10-05T02:51:24.743Z,7.07
2022-10-05T02:54:09.581Z,7.35
2022-10-05T02:56:54.958Z,7.35
2022-10-05T02:59:34.033Z,7.50
2022-10-05T03:02:22.672Z,7.57
2022-10-05T03:05:04.986Z,6.95
2022-10-05T03:07:39.303Z,7.07
2022-10-05T03:10:09.451Z,7.38
2022-10-05T03:12:38.929Z,7.25
2022-10-05T03:15:39.288Z,6.82
2022-10-05T03:18:30.762Z,7.90
2022-10-05T03:21:33.468Z,7.72
2022-10-05T03:24:21.966Z,7.72
2022-10-05T03:26:54.853Z,6.53
2022-10-05T03:29:33.946Z,7.70
2022-10-05T03:32:14.633Z,6.95
2022-10-05T03:34:47.937Z,6.47
2022-10-05T03:37:27.991Z,7.13
2022-10-05T03:40:02.484Z,6.75
2022-10-05T03:42:47.130Z,6.43
2022-10-05T03:45:34.935Z,6.70
2022-10-05T03:48:08.922Z,6.35
2022-10-05T03:50:41.110Z,6.20
2022-10-05T03:53:21.007Z,6.60
2022-10-05T03:56:04.438Z,6.00
2022-10-05T03:58:50.616Z,6.75
2022-10-05T04:01:25.427Z,6.47
2022-10-05T04:04:02.225Z,6.40
2022-10-05T04:06:41.179Z,6.13
2022-10-05T04:09:20.972Z,6.35
2022-10-05T04:12:12.449Z,6.18
2022-10-05T04:14:44.692Z,5.68
2022-10-05T04:17:31.243Z,5.40
2022-10-05T04:20:27.156Z,6.72
2022-10-05T04:23:16.576Z,5.55
2022-10-05T04:25:50.440Z,6.10
2022-10-05T04:28:29.666Z,5.60
2022-10-05T04:31:00.454Z,5.35
2022-10-05T04:33:27.444Z,5.63
2022-10-05T04:36:31.838Z,5.65
2022-10-05T04:39:29.317Z,5.90
2022-10-05T04:42:33.034Z,5.63
2022-10-05T04:45:32.591Z,5.78
2022-10-05T04:48:04.692Z,5.32
2022-10-05T04:50:34.084Z,5.93
2022-10-05T04:53:36.160Z,6.07
2022-10-05T04:56:15.423Z,6.13
2022-10-05T04:58:46.911Z,5.88
2022-10-05T05:01:23.642Z,5.55
2022-10-05T05:04:14.821Z,5.68
2022-10-05T05:07:18.602Z,5.32
2022-10-05T05:10:23.143Z,5.15
2022-10-05T05:13:15.165Z,4.40
2022-10-05T05:18:48.823Z,4.03
2022-10-05T05:21:39.840Z,3.92
2022-10-05T05:24:20.687Z,3.97
2022-10-05T05:27:01.383Z,3.72
2022-10-05T05:29:43.485Z,3.58
2022-10-05T05:35:36.721Z,3.15
2022-10-05T05:38:20.790Z,3.45
2022-10-05T05:41:07.476Z,3.38
2022-10-05T05:44:04.653Z,3.50
2022-10-05T05:47:02.503Z,3.75
2022-10-05T05:50:06.357Z,3.70
2022-10-05T05:52:36.283Z,3.40
2022-10-05T05:55:13.887Z,4.18
2022-10-05T05:57:51.989Z,4.30
2022-10-05T06:00:27.399Z,3.92
2022-10-05T06:02:59.142Z,4.28
2022-10-05T06:05:39.228Z,4.25
2022-10-05T06:08:35.506Z,4.57
2022-10-05T06:11:23.334Z,4.80
2022-10-05T06:13:51.531Z,5.10
2022-10-05T06:16:39.899Z,5.05
2022-10-05T06:19:14.310Z,4.53
2022-10-05T06:21:55.090Z,5.13
2022-10-05T06:24:49.760Z,4.25
2022-10-05T06:27:40.537Z,4.55
2022-10-05T06:30:15.991Z,4.80
2022-10-05T06:33:21.074Z,4.82
2022-10-05T06:36:11.096Z,5.40
2022-10-05T06:39:07.928Z,5.28
2022-10-05T06:41:56.587Z,4.78
2022-10-05T06:45:15.050Z,5.40
2022-10-05T06:48:12.419Z,4.95
2022-10-05T06:51:00.455Z,5.03
2022-10-05T06:53:42.165Z,4.20
2022-10-05T06:56:22.706Z,5.47
2022-10-05T06:58:49.438Z,5.13
2022-10-05T07:01:45.801Z,4.75
2022-10-05T07:04:54.728Z,4.30
2022-10-05T07:07:39.799Z,4.28
2022-10-05T07:10:27.816Z,4.47
2022-10-05T07:13:08.483Z,4.75
2022-10-05T07:15:38.059Z,4.15
2022-10-05T07:18:19.790Z,4.97
2022-10-05T07:21:05.153Z,4.28
2022-10-05T07:23:56.555Z,4.35
2022-10-05T07:26:32.174Z,4.55
2022-10-05T07:29:07.889Z,4.53
2022-10-05T07:31:49.619Z,4.40
2022-10-05T07:34:52.428Z,4.35
2022-10-05T07:37:45.594Z,4.53
2022-10-05T07:40:23.537Z,4.05
2022-10-05T07:43:12.031Z,4.30
2022-10-05T07:45:53.377Z,4.45
2022-10-05T07:48:23.452Z,4.22
2022-10-05T07:51:45.013Z,4.35
2022-10-05T07:54:21.952Z,4.22
2022-10-05T07:56:58.423Z,3.75
2022-10-05T07:59:36.520Z,3.85
2022-10-05T08:02:47.010Z,4.00
2022-10-05T08:05:22.128Z,4.28
2022-10-05T08:07:54.571Z,4.10
2022-10-05T08:10:41.719Z,4.45
2022-10-05T08:13:21.931Z,4.15
2022-10-05T08:15:53.816Z,3.97
2022-10-05T08:18:44.532Z,4.20
2022-10-05T08:21:13.506Z,4.07
2022-10-05T08:23:54.014Z,4.03
2022-10-05T08:26:45.063Z,4.40
2022-10-05T08:29:31.735Z,4.40
2022-10-05T08:32:03.235Z,4.15
2022-10-05T08:34:37.303Z,3.83
2022-10-05T08:37:17.799Z,4.28
2022-10-05T08:39:56.214Z,4.28
2022-10-05T08:42:35.316Z,4.10
2022-10-05T08:45:44.279Z,4.07
2022-10-05T08:48:35.969Z,4.55
2022-10-05T08:51:23.316Z,4.00
2022-10-05T08:54:28.482Z,4.03
2022-10-05T08:57:13.609Z,4.10
2022-10-05T09:00:01.421Z,3.70
2022-10-05T09:02:49.725Z,3.92
2022-10-05T09:05:44.026Z,3.85
2022-10-05T09:08:48.825Z,4.05
2022-10-05T09:11:49.940Z,3.67
2022-10-05T09:15:20.529Z,3.53
2022-10-05T09:18:20.144Z,3.35
2022-10-05T09:20:55.049Z,3.17
2022-10-05T09:23:44.955Z,3.10
2022-10-05T09:26:30.198Z,2.95
2022-10-05T09:29:18.300Z,2.72
2022-10-05T09:32:16.478Z,2.70
2022-10-05T09:35:04.670Z,2.92
2022-10-05T09:38:13.349Z,2.92
2022-10-05T09:41:17.938Z,3.50
2022-10-05T09:44:12.395Z,3.50
2022-10-05T09:47:04.667Z,3.78
2022-10-05T09:50:09.796Z,3.70
2022-10-05T09:52:56.846Z,3.40
2022-10-05T09:55:42.116Z,3.10
2022-10-05T09:58:29.423Z,3.42
2022-10-05T10:01:33.780Z,2.40
2022-10-05T10:04:37.987Z,2.65
2022-10-05T10:07:22.692Z,2.45
2022-10-05T10:10:07.101Z,2.70
2022-10-05T10:12:42.540Z,2.45
2022-10-05T10:15:46.088Z,2.63
2022-10-05T10:18:36.081Z,3.00
2022-10-05T10:21:30.009Z,3.45
2022-10-05T10:24:02.003Z,2.78
2022-10-05T10:26:43.899Z,2.97
2022-10-05T10:32:13.251Z,3.30
2022-10-05T10:35:18.828Z,3.40
2022-10-05T10:38:07.544Z,3.20
2022-10-05T10:40:51.994Z,3.17
2022-10-05T10:43:27.796Z,3.40
2022-10-05T10:46:09.213Z,3.30
2022-10-05T10:49:02.467Z,3.53
2022-10-05T10:51:59.739Z,3.50
2022-10-05T10:54:53.826Z,3.42
2022-10-05T10:57:37.973Z,3.65
2022-10-05T11:00:19.208Z,5.10
2022-10-05T11:03:08.391Z,3.75
2022-10-05T11:05:56.593Z,3.88
2022-10-05T11:08:37.554Z,3.67
2022-10-05T11:11:38.551Z,3.80
2022-10-05T11:14:21.121Z,3.88
2022-10-05T11:17:23.141Z,3.65
2022-10-05T11:20:10.257Z,4.15
2022-10-05T11:22:56.181Z,3.10
2022-10-05T11:25:34.550Z,3.28
2022-10-05T11:28:19.662Z,3.75
2022-10-05T11:31:01.452Z,3.35
2022-10-05T11:36:46.572Z,3.15
2022-10-05T11:39:30.458Z,3.38
2022-10-05T11:42:48.623Z,3.17
2022-10-05T11:45:36.205Z,3.38
2022-10-05T11:48:07.145Z,2.92
2022-10-05T11:51:01.791Z,3.40
2022-10-05T11:53:37.461Z,3.10
2022-10-05T11:56:16.952Z,3.28
2022-10-05T11:58:53.287Z,3.35
2022-10-05T12:01:47.505Z,2.90
2022-10-05T12:04:23.015Z,3.60
2022-10-05T12:07:15.385Z,3.60
2022-10-05T12:10:17.220Z,3.08
2022-10-05T12:13:24.881Z,3.22
2022-10-05T12:15:57.024Z,3.00
2022-10-05T12:18:33.890Z,2.55
2022-10-05T12:21:27.588Z,3.13
2022-10-05T12:24:03.758Z,3.20
2022-10-05T12:26:55.496Z,2.92
2022-10-05T12:29:44.008Z,2.60
2022-10-05T12:32:17.022Z,2.83
2022-10-05T12:34:49.197Z,2.60
2022-10-05T12:37:30.788Z,2.67
2022-10-05T12:40:08.453Z,3.33
2022-10-05T12:42:51.143Z,2.40
2022-10-05T12:45:20.460Z,2.50
2022-10-05T12:48:06.876Z,2.75
2022-10-05T12:50:42.065Z,2.92
2022-10-05T12:53:11.398Z,2.53
2022-10-05T12:56:14.503Z,2.95
2022-10-05T12:59:04.512Z,2.65
2022-10-05T13:01:43.283Z,2.60
2022-10-05T13:04:28.623Z,2.75
2022-10-05T13:07:09.669Z,2.60
2022-10-05T13:09:46.428Z,2.55
2022-10-05T13:12:36.000Z,2.70
2022-10-05T13:15:20.029Z,2.40
2022-10-05T13:18:03.400Z,2.50
2022-10-05T13:20:37.822Z,2.38
2022-10-05T13:23:24.583Z,2.20
2022-10-05T13:26:00.668Z,2.30
2022-10-05T13:28:37.355Z,2.40
2022-10-05T13:31:14.932Z,2.63
2022-10-05T13:34:14.262Z,2.35
2022-10-05T13:37:05.882Z,2.53
2022-10-05T13:39:49.032Z,2.58
2022-10-05T13:42:21.337Z,2.80
2022-10-05T13:44:59.038Z,2.53
2022-10-05T13:47:41.960Z,2.30
2022-10-05T13:50:23.281Z,2.38
2022-10-05T13:53:04.628Z,2.67
2022-10-05T13:55:47.381Z,3.10
2022-10-05T13:58:51.968Z,2.88
2022-10-05T14:01:44.484Z,2.35
2022-10-05T14:04:28.454Z,2.50
2022-10-05T14:06:55.141Z,2.50
2022-10-05T14:09:22.012Z,2.63
2022-10-05T14:12:09.051Z,2.50
2022-10-05T14:14:56.291Z,3.15
2022-10-05T14:17:43.284Z,2.60
2022-10-05T14:20:31.385Z,2.28
2022-10-05T14:23:01.835Z,2.40
2022-10-05T14:25:45.312Z,2.10
2022-10-05T14:28:11.841Z,2.30
2022-10-05T14:30:39.756Z,2.17
2022-10-05T14:33:06.072Z,2.33
2022-10-05T14:35:44.591Z,2.13
2022-10-05T14:38:28.701Z,2.25
2022-10-05T14:41:19.010Z,2.30
2022-10-05T14:44:08.564Z,2.42
2022-10-05T14:46:36.520Z,2.15
2022-10-05T14:49:26.155Z,2.15
2022-10-05T14:51:54.460Z,2.45
2022-10-05T14:54:29.396Z,2.22
2022-10-05T14:57:20.273Z,2.00
2022-10-05T15:00:11.880Z,1.98
2022-10-05T15:03:20.248Z,1.90
2022-10-05T15:05:58.808Z,2.10
2022-10-05T15:08:41.363Z,1.98
2022-10-05T15:11:22.955Z,2.10
2022-10-05T15:13:50.099Z,2.40
2022-10-05T15:16:34.076Z,2.53
2022-10-05T15:19:21.640Z,2.47
2022-10-05T15:22:18.591Z,2.40
2022-10-05T15:25:01.559Z,2.10
2022-10-05T15:27:43.566Z,2.33
2022-10-05T15:30:12.563Z,2.20
2022-10-05T15:32:55.376Z,2.92
2022-10-05T15:35:24.468Z,2.08
2022-10-05T15:38:04.440Z,2.33
2022-10-05T15:40:44.425Z,2.05
2022-10-05T15:43:16.258Z,2.20
2022-10-05T15:45:54.636Z,2.90
2022-10-05T15:48:49.171Z,2.30
2022-10-05T15:51:40.594Z,2.78
2022-10-05T15:54:34.842Z,2.65
2022-10-05T15:57:26.046Z,2.47
2022-10-05T16:00:10.168Z,2.58
2022-10-05T16:03:14.547Z,2.35
2022-10-05T16:06:07.924Z,2.42
2022-10-05T16:08:54.176Z,2.13
2022-10-05T16:11:29.793Z,2.45
2022-10-05T16:14:37.939Z,2.50
2022-10-05T16:17:17.213Z,1.70
2022-10-05T16:20:12.391Z,1.90
2022-10-05T16:23:01.332Z,2.22
2022-10-05T16:25:49.343Z,2.15
2022-10-05T16:28:39.537Z,2.30
2022-10-05T16:31:16.304Z,2.10
2022-10-05T16:33:54.506Z,2.05
2022-10-05T16:36:41.445Z,2.08
2022-10-05T16:39:36.856Z,1.80
2022-10-05T16:42:14.590Z,2.10
2022-10-05T16:45:21.238Z,2.25
2022-10-05T16:47:57.654Z,2.30
2022-10-05T16:50:27.556Z,2.10
2022-10-05T16:53:03.396Z,1.75
2022-10-05T16:55:37.031Z,2.20
2022-10-05T16:58:17.891Z,2.15
2022-10-05T17:01:02.990Z,2.45
2022-10-05T17:03:57.106Z,2.20
2022-10-05T17:06:35.240Z,2.40
2022-10-05T17:09:34.807Z,2.40
2022-10-05T17:12:06.677Z,2.10
2022-10-05T17:15:14.512Z,2.08
2022-10-05T17:18:18.585Z,2.30
2022-10-05T17:21:00.919Z,2.67
2022-10-05T17:23:50.120Z,2.35
2022-10-05T17:26:22.437Z,2.47
2022-10-05T17:28:51.900Z,2.72
2022-10-05T17:31:21.659Z,2.33
2022-10-05T17:34:26.099Z,2.45
2022-10-05T17:36:58.277Z,2.25
2022-10-05T17:39:46.647Z,2.67
2022-10-05T17:42:31.413Z,2.45
2022-10-05T17:44:59.805Z,2.50
2022-10-05T17:47:58.984Z,2.60
2022-10-05T17:50:56.249Z,2.20
2022-10-05T17:53:54.504Z,2.10
2022-10-05T17:56:22.095Z,2.20
2022-10-05T17:58:54.319Z,2.50
2022-10-05T18:01:30.332Z,2.25
2022-10-05T18:04:12.199Z,2.35
2022-10-05T18:06:59.803Z,2.70
2022-10-05T18:09:27.234Z,2.65
2022-10-05T18:12:24.776Z,2.58
2022-10-05T18:15:00.167Z,2.35
2022-10-05T18:18:32.760Z,2.67
2022-10-05T18:21:15.063Z,2.63
2022-10-05T18:23:59.829Z,2.90
2022-10-05T18:26:40.232Z,2.70
2022-10-05T18:29:52.776Z,2.53
2022-10-05T18:32:42.452Z,2.60
2022-10-05T18:35:39.263Z,2.58
2022-10-05T18:38:43.652Z,3.20
2022-10-05T18:41:34.632Z,2.70
2022-10-05T18:44:31.606Z,3.10
2022-10-05T18:47:07.607Z,2.85
2022-10-05T18:49:52.154Z,3.15
2022-10-05T18:52:55.828Z,2.67
2022-10-05T18:55:37.847Z,2.40
2022-10-05T18:58:22.446Z,2.85
2022-10-05T19:01:27.889Z,2.83
2022-10-05T19:04:16.786Z,2.30
2022-10-05T19:07:12.891Z,2.70
2022-10-05T19:10:06.019Z,2.80
2022-10-05T19:12:44.728Z,2.65
2022-10-05T19:15:29.255Z,2.40
2022-10-05T19:18:18.485Z,2.53
2022-10-05T19:20:57.935Z,3.15
2022-10-05T19:23:50.939Z,2.58
2022-10-05T19:26:35.682Z,2.53
2022-10-05T19:29:30.854Z,2.60
2022-10-05T19:32:18.474Z,2.47
2022-10-05T19:35:02.701Z,2.65
2022-10-05T19:37:50.910Z,2.55
2022-10-05T19:40:55.285Z,2.97
2022-10-05T19:43:50.502Z,2.88
2022-10-05T19:46:21.298Z,3.50
2022-10-05T19:48:49.838Z,2.73
2022-10-05T19:51:25.443Z,1.55
2022-10-05T19:53:55.896Z,1.90
2022-10-05T19:56:25.452Z,1.08
2022-10-05T19:58:57.335Z,0.80
2022-10-05T20:01:41.756Z,0.52
2022-10-05T20:04:09.804Z,0.70
2022-10-05T20:06:39.355Z,0.70
2022-10-05T20:09:23.847Z,0.60
2022-10-05T20:11:52.035Z,0.70
2022-10-05T20:14:30.466Z,0.60
2022-10-05T20:17:46.647Z,0.70
2022-10-05T20:20:30.267Z,0.50
2022-10-05T20:23:18.429Z,0.90
2022-10-05T20:26:04.804Z,0.50
2022-10-05T20:28:33.088Z,0.80
2022-10-05T20:30:59.760Z,0.55
2022-10-05T20:33:27.305Z,0.70
2022-10-05T20:35:54.043Z,0.60
2022-10-05T20:38:20.819Z,0.80
2022-10-05T20:40:47.204Z,0.82
2022-10-05T20:43:13.645Z,0.57
2022-10-05T20:45:43.213Z,0.60
2022-10-05T20:48:10.989Z,0.70
2022-10-05T20:50:37.820Z,0.82
2022-10-05T20:53:09.635Z,0.60
2022-10-05T20:55:38.333Z,0.65
2022-10-05T20:58:04.894Z,0.60
2022-10-05T21:00:51.400Z,0.82
2022-10-05T21:03:19.209Z,0.82
2022-10-05T21:05:46.903Z,0.90
2022-10-05T21:08:13.809Z,0.70
2022-10-05T21:10:40.198Z,0.77
2022-10-05T21:13:06.584Z,0.95
2022-10-05T21:15:33.000Z,0.80
2022-10-05T21:17:59.387Z,0.50
2022-10-05T21:20:25.974Z,0.68
2022-10-05T21:22:52.364Z,0.50
2022-10-05T21:25:18.789Z,0.50
2022-10-05T21:27:46.271Z,0.40
2022-10-05T21:30:12.822Z,0.50
2022-10-05T21:32:43.969Z,0.65
2022-10-05T21:35:10.942Z,0.30
2022-10-05T21:37:37.349Z,0.40
2022-10-05T21:40:04.154Z,0.40
2022-10-05T21:42:30.763Z,0.70
2022-10-05T21:44:57.186Z,0.65
2022-10-05T21:47:23.582Z,0.50
2022-10-05T21:49:50.012Z,0.82
2022-10-05T21:52:16.501Z,0.55
2022-10-05T21:54:42.932Z,0.75
2022-10-05T21:57:10.911Z,0.50
2022-10-05T21:59:37.800Z,0.40
2022-10-05T22:02:04.356Z,0.60
2022-10-05T22:04:30.786Z,0.52
2022-10-05T22:06:57.373Z,0.60
2022-10-05T22:09:23.792Z,0.73
2022-10-05T22:11:50.150Z,0.68
2022-10-05T22:14:16.640Z,0.60
2022-10-05T22:16:44.519Z,0.70
2022-10-05T22:19:16.518Z,0.50
2022-10-05T22:21:42.941Z,0.50
2022-10-05T22:24:11.505Z,0.80
2022-10-05T22:26:39.788Z,0.57
2022-10-05T22:29:06.314Z,0.90
2022-10-05T22:31:32.804Z,0.70
2022-10-05T22:33:59.319Z,0.68
2022-10-05T22:36:26.040Z,0.70
2022-10-05T22:38:52.458Z,0.90
2022-10-05T22:41:19.068Z,0.88
2022-10-05T22:43:49.884Z,1.25
2022-10-05T22:46:16.721Z,0.82
2022-10-05T22:48:43.459Z,1.00
2022-10-05T22:51:10.247Z,1.10
2022-10-05T22:53:36.683Z,1.08
2022-10-05T22:56:07.904Z,0.80
2022-10-05T22:58:35.232Z,1.00
2022-10-05T23:01:07.082Z,0.82
2022-10-05T23:03:34.371Z,1.00
2022-10-05T23:06:06.756Z,1.27
2022-10-05T23:08:34.329Z,1.10
2022-10-05T23:11:15.429Z,1.15
2022-10-05T23:13:42.335Z,1.20
2022-10-05T23:16:16.672Z,1.27
2022-10-05T23:18:44.000Z,0.98
2022-10-05T23:21:11.410Z,1.00
2022-10-05T23:23:39.542Z,1.20
2022-10-05T23:26:08.171Z,1.17
2022-10-05T23:28:34.752Z,1.17
2022-10-05T23:31:06.708Z,1.50
2022-10-05T23:33:33.633Z,1.33
2022-10-05T23:36:12.810Z,1.20
2022-10-05T23:38:39.192Z,1.38
2022-10-05T23:41:06.608Z,1.70
2022-10-05T23:43:33.450Z,1.60
2022-10-05T23:46:00.243Z,1.35
2022-10-05T23:48:27.194Z,1.55
2022-10-05T23:50:55.583Z,1.58
2022-10-05T23:53:22.664Z,1.40
2022-10-05T23:55:53.382Z,1.35
2022-10-05T23:58:20.604Z,1.75
